Time;durP1;ratioP1;P1;durP2;ratioP2;P2;SDS_P1;SDS_P2;PMS_P1;PMS_P2;Temp;Humidity;BMP_temperature;BMP_pressure;BME280_temperature;BME280_humidity;BME280_pressure;Samples;Min_cycle;Max_cycle;Signal;HPM_P1;HPM_P2
2022/01/07 00:02:00;;;;;;;;;;;;;;;-18.28;85.79;99779.13;5052702;28;19920;-77
2022/01/07 00:04:27;;;;;;;;;;;;;;;-18.42;86.27;99782.59;5052401;28;20363;-77
2022/01/07 00:07:15;;;;;;;;;;;;;;;-18.40;86.45;99793.47;5059463;22;19924;-77
2022/01/07 00:09:43;;;;;;;;;;;;;;;-18.34;85.83;99807.00;5052270;28;19921;-77
2022/01/07 00:12:10;;;;;;;;;;;;;;;-18.47;86.40;99809.69;5052334;28;19921;-78
2022/01/07 00:14:36;;;;;;;;;;;;;;;-18.64;86.95;99816.38;5052522;28;19928;-78
2022/01/07 00:17:03;;;;;;;;;;;;;;;-18.41;86.33;99822.41;5052614;28;19920;-78
2022/01/07 00:19:30;;;;;;;;;;;;;;;-18.45;86.32;99820.56;5052671;28;20359;-76
2022/01/07 00:21:56;;;;;;;;;;;;;;;-18.55;86.12;99818.44;5052189;28;19920;-78
2022/01/07 00:24:23;;;;;;;;;;;;;;;-18.54;86.66;99817.66;5052132;28;19920;-76
2022/01/07 00:35:56;;;;;;;;;;;;;;;-18.59;86.75;99814.13;5047463;22;20351;-78
2022/01/07 00:38:23;;;;;;;;;;;;;;;-18.69;86.68;99817.81;5052081;28;20260;-75
2022/01/07 00:40:49;;;;;;;;;;;;;;;-18.73;87.04;99810.97;5051736;28;19927;-75
2022/01/07 00:43:16;;;;;;;;;;;;;;;-18.68;86.72;99810.41;5051953;28;19921;-78
2022/01/07 00:45:44;;;;;;;;;;;;;;;-18.59;86.25;99804.19;5065075;22;19920;-69
2022/01/07 00:48:10;;;;;;;;;;;;;;;-18.66;86.60;99806.38;5052106;28;19932;-70
2022/01/07 00:50:37;;;;;;;;;;;;;;;-18.61;87.07;99814.03;5052454;28;19927;-67
2022/01/07 00:53:04;;;;;;;;;;;;;;;-18.54;86.96;99806.09;5052869;28;19931;-70
2022/01/07 00:55:31;;;;;;;;;;;;;;;-18.66;86.80;99808.00;5055543;28;19921;-69
2022/01/07 00:57:57;;;;;;;;;;;;;;;-18.73;87.22;99806.88;5055657;28;19956;-69
2022/01/07 01:00:25;;;;;;;;;;;;;;;-18.86;87.28;99807.13;5055674;28;19921;-69
2022/01/07 01:02:54;;;;;;;;;;;;;;;-18.85;87.08;99806.34;5055625;28;20385;-70
2022/01/07 01:05:21;;;;;;;;;;;;;;;-18.74;87.06;99807.66;5055544;28;19920;-70
2022/01/07 01:07:48;;;;;;;;;;;;;;;-18.76;87.33;99798.47;5055430;28;20409;-70
2022/01/07 01:10:16;;;;;;;;;;;;;;;-18.74;86.82;99805.19;5055379;28;19921;-70
2022/01/07 01:12:44;;;;;;;;;;;;;;;-18.76;86.78;99803.44;5055664;28;19920;-70
2022/01/07 01:15:12;;;;;;;;;;;;;;;-18.86;86.94;99804.63;5055348;28;19928;-69
2022/01/07 01:17:39;;;;;;;;;;;;;;;-18.76;87.01;99803.44;5055412;28;19920;-69
2022/01/07 01:20:08;;;;;;;;;;;;;;;-18.90;86.92;99813.56;5055351;28;19920;-70
2022/01/07 01:22:35;;;;;;;;;;;;;;;-18.95;87.32;99812.50;5055487;28;20378;-68
2022/01/07 01:25:02;;;;;;;;;;;;;;;-18.91;87.24;99816.81;5054923;28;19928;-69
2022/01/07 01:27:28;;;;;;;;;;;;;;;-19.01;87.33;99812.19;5055354;28;19924;-70
2022/01/07 01:29:55;;;;;;;;;;;;;;;-18.98;87.43;99813.97;5055124;28;20015;-70
2022/01/07 01:32:21;;;;;;;;;;;;;;;-19.10;87.60;99811.78;5055167;28;20003;-69
2022/01/07 01:34:48;;;;;;;;;;;;;;;-19.02;87.40;99814.63;5054918;28;19920;-70
2022/01/07 01:37:16;;;;;;;;;;;;;;;-18.94;87.32;99823.28;5054844;28;19928;-70
2022/01/07 01:39:43;;;;;;;;;;;;;;;-18.82;86.93;99811.44;5055098;28;20341;-70
2022/01/07 01:42:09;;;;;;;;;;;;;;;-18.95;87.41;99806.69;5055220;28;19928;-65
2022/01/07 01:44:36;;;;;;;;;;;;;;;-18.84;87.18;99814.63;5055382;28;19921;-69
2022/01/07 01:47:03;;;;;;;;;;;;;;;-18.97;87.82;99813.22;5055054;28;20370;-69
2022/01/07 01:49:30;;;;;;;;;;;;;;;-18.96;87.39;99818.22;5054715;28;19932;-70
2022/01/07 01:51:56;;;;;;;;;;;;;;;-19.08;87.05;99825.09;5054714;28;19928;-69
2022/01/07 01:54:24;;;;;;;;;;;;;;;-19.13;87.50;99827.34;5054675;28;19920;-70
2022/01/07 01:56:51;;;;;;;;;;;;;;;-19.11;87.97;99833.25;5054812;28;19932;-70
2022/01/07 01:59:23;;;;;;;;;;;;;;;-19.02;88.13;99832.81;5054503;28;19921;-68
2022/01/07 02:01:50;;;;;;;;;;;;;;;-19.16;88.02;99841.22;5054471;28;20322;-69
2022/01/07 02:04:16;;;;;;;;;;;;;;;-19.06;87.98;99852.44;5054319;28;19928;-70
2022/01/07 02:06:43;;;;;;;;;;;;;;;-19.31;88.10;99861.16;5053873;28;19921;-69
2022/01/07 02:09:13;;;;;;;;;;;;;;;-19.42;88.90;99850.69;5054824;28;19928;-70
2022/01/07 02:11:41;;;;;;;;;;;;;;;-19.63;88.45;99840.56;5054777;28;20292;-70
2022/01/07 02:14:07;;;;;;;;;;;;;;;-19.71;88.84;99834.41;5054621;28;19920;-70
2022/01/07 02:16:34;;;;;;;;;;;;;;;-19.68;89.25;99829.59;5054138;28;20314;-70
2022/01/07 02:19:01;;;;;;;;;;;;;;;-19.69;89.28;99836.97;5054096;28;19921;-70
2022/01/07 02:21:29;;;;;;;;;;;;;;;-19.73;89.16;99825.19;5054309;28;19920;-69
2022/01/07 02:23:55;;;;;;;;;;;;;;;-19.72;89.97;99834.34;5054307;28;20378;-70
2022/01/07 02:26:22;;;;;;;;;;;;;;;-19.69;89.67;99836.97;5053963;28;20026;-70
2022/01/07 02:28:49;;;;;;;;;;;;;;;-19.74;89.98;99829.31;5054035;28;20352;-70
2022/01/07 02:31:16;;;;;;;;;;;;;;;-19.69;89.63;99827.91;5053848;28;19929;-69
2022/01/07 02:33:42;;;;;;;;;;;;;;;-19.60;91.08;99825.00;5054185;28;20367;-70
2022/01/07 02:36:09;;;;;;;;;;;;;;;-19.40;91.40;99826.00;5054324;28;19921;-69
2022/01/07 02:38:38;;;;;;;;;;;;;;;-19.15;90.67;99830.53;5053768;28;19920;-69
2022/01/07 02:41:04;;;;;;;;;;;;;;;-18.97;89.86;99830.56;5053942;28;19925;-70
2022/01/07 02:43:31;;;;;;;;;;;;;;;-19.18;89.28;99836.19;5053566;28;19921;-70
2022/01/07 02:45:58;;;;;;;;;;;;;;;-19.13;89.61;99829.84;5053783;28;19921;-68
2022/01/07 02:48:24;;;;;;;;;;;;;;;-19.23;89.62;99830.16;5053882;28;19921;-70
2022/01/07 02:50:51;;;;;;;;;;;;;;;-19.30;89.49;99833.13;5053764;28;19920;-69
2022/01/07 02:53:17;;;;;;;;;;;;;;;-19.25;89.80;99828.38;5053688;28;19928;-69
2022/01/07 02:55:45;;;;;;;;;;;;;;;-19.31;90.03;99833.91;5053497;28;19921;-65
2022/01/07 02:58:12;;;;;;;;;;;;;;;-19.30;89.41;99838.06;5053818;28;19924;-70
2022/01/07 03:00:39;;;;;;;;;;;;;;;-19.18;89.53;99841.16;5053520;28;19928;-68
2022/01/07 03:03:07;;;;;;;;;;;;;;;-19.23;89.52;99844.19;5053269;28;19925;-70
2022/01/07 03:05:33;;;;;;;;;;;;;;;-19.34;90.02;99841.16;5053172;28;19928;-69
2022/01/07 03:08:00;;;;;;;;;;;;;;;-19.33;89.50;99850.31;5053390;28;20343;-68
2022/01/07 03:10:29;;;;;;;;;;;;;;;-19.14;90.06;99850.44;5053315;28;19921;-69
2022/01/07 03:12:58;;;;;;;;;;;;;;;-18.92;90.21;99849.00;5053247;28;19921;-70
2022/01/07 03:15:24;;;;;;;;;;;;;;;-18.89;90.46;99854.94;5053199;28;19921;-70
2022/01/07 03:17:51;;;;;;;;;;;;;;;-18.56;91.24;99851.47;5052226;28;19920;-69
2022/01/07 03:20:20;;;;;;;;;;;;;;;-18.30;91.62;99848.56;5053057;28;20015;-68
2022/01/07 03:22:48;;;;;;;;;;;;;;;-18.13;91.21;99851.81;5053053;28;19921;-70
2022/01/07 03:25:14;;;;;;;;;;;;;;;-17.97;91.18;99859.94;5053346;28;19943;-70
2022/01/07 03:27:41;;;;;;;;;;;;;;;-17.91;90.60;99857.72;5052869;28;19921;-70
2022/01/07 03:30:10;;;;;;;;;;;;;;;-17.76;92.77;99864.97;5052991;28;19931;-69
2022/01/07 03:32:37;;;;;;;;;;;;;;;-17.69;91.97;99862.81;5052991;28;19932;-68
2022/01/07 03:35:04;;;;;;;;;;;;;;;-17.48;92.03;99857.91;5052994;28;19924;-69
2022/01/07 03:37:30;;;;;;;;;;;;;;;-17.28;92.50;99851.31;5052824;28;20374;-70
2022/01/07 03:39:57;;;;;;;;;;;;;;;-17.26;91.66;99851.34;5052755;28;19920;-69
2022/01/07 03:42:24;;;;;;;;;;;;;;;-17.20;91.89;99854.09;5052722;28;20397;-68
2022/01/07 03:44:50;;;;;;;;;;;;;;;-17.06;92.71;99860.47;5053039;28;19921;-69
2022/01/07 03:47:18;;;;;;;;;;;;;;;-16.78;92.28;99859.97;5064415;22;19928;-78
2022/01/07 03:49:45;;;;;;;;;;;;;;;-16.64;92.95;99874.56;5052891;28;19927;-79
2022/01/07 03:52:11;;;;;;;;;;;;;;;-16.48;93.26;99871.91;5052737;28;20398;-75
2022/01/07 03:54:38;;;;;;;;;;;;;;;-16.19;93.58;99870.50;5052712;28;19924;-75
2022/01/07 03:57:05;;;;;;;;;;;;;;;-15.92;93.03;99868.22;5052563;28;19927;-76
2022/01/07 03:59:32;;;;;;;;;;;;;;;-15.71;93.15;99873.13;5052951;28;19921;-78
2022/01/07 04:01:58;;;;;;;;;;;;;;;-15.41;94.15;99872.47;5052707;28;19927;-74
2022/01/07 04:04:26;;;;;;;;;;;;;;;-15.15;95.11;99875.88;5052409;28;20255;-74
2022/01/07 04:06:53;;;;;;;;;;;;;;;-14.94;94.73;99874.09;5052289;28;19920;-78
2022/01/07 04:09:19;;;;;;;;;;;;;;;-14.71;93.18;99874.84;5052796;28;19929;-78
2022/01/07 04:11:46;;;;;;;;;;;;;;;-14.49;93.71;99881.34;5052729;28;19924;-78
2022/01/07 04:14:13;;;;;;;;;;;;;;;-14.29;93.49;99879.44;5052427;28;19943;-77
2022/01/07 04:16:39;;;;;;;;;;;;;;;-14.11;93.93;99894.16;5052083;28;19925;-76
2022/01/07 04:19:06;;;;;;;;;;;;;;;-14.01;93.78;99895.28;5052300;28;20290;-77
2022/01/07 04:21:34;;;;;;;;;;;;;;;-13.88;94.39;99917.34;5052581;28;19921;-77
2022/01/07 04:24:00;;;;;;;;;;;;;;;-13.84;93.08;99903.28;5052330;28;19920;-77
2022/01/07 04:26:27;;;;;;;;;;;;;;;-13.63;93.33;99910.56;5052013;28;20377;-79
2022/01/07 04:28:53;;;;;;;;;;;;;;;-13.32;94.27;99906.41;5054446;28;20307;-77
2022/01/07 04:31:20;;;;;;;;;;;;;;;-13.27;94.16;99907.41;5056370;28;19921;-77
2022/01/07 04:33:47;;;;;;;;;;;;;;;-13.12;94.23;99912.78;5056519;28;19920;-78
2022/01/07 04:36:13;;;;;;;;;;;;;;;-13.19;93.09;99908.41;5055895;28;19927;-76
2022/01/07 04:38:41;;;;;;;;;;;;;;;-13.17;93.21;99916.81;5056014;28;19925;-78
2022/01/07 04:41:08;;;;;;;;;;;;;;;-13.05;92.97;99918.78;5056261;28;19964;-77
2022/01/07 04:43:35;;;;;;;;;;;;;;;-12.97;93.64;99917.31;5055987;28;20301;-79
2022/01/07 04:46:01;;;;;;;;;;;;;;;-12.98;93.28;99908.13;5068658;22;20329;-69
2022/01/07 04:48:28;;;;;;;;;;;;;;;-12.86;93.25;99910.13;5055836;28;19921;-68
2022/01/07 04:50:54;;;;;;;;;;;;;;;-12.81;92.98;99908.56;5056379;28;19924;-69
2022/01/07 04:53:21;;;;;;;;;;;;;;;-12.72;94.29;99903.78;5056064;28;19921;-67
2022/01/07 04:55:49;;;;;;;;;;;;;;;-12.67;92.57;99911.41;5055697;28;19924;-69
2022/01/07 04:58:16;;;;;;;;;;;;;;;-12.56;93.78;99913.41;5056006;28;19920;-68
2022/01/07 05:00:43;;;;;;;;;;;;;;;-12.54;92.40;99924.28;5055702;28;19924;-66
2022/01/07 05:03:10;;;;;;;;;;;;;;;-12.48;93.30;99921.09;5055528;28;19920;-68
2022/01/07 05:05:37;;;;;;;;;;;;;;;-12.46;93.01;99923.63;5055471;28;19928;-68
2022/01/07 05:08:04;;;;;;;;;;;;;;;-12.43;91.73;99923.69;5055585;28;20355;-67
2022/01/07 05:10:31;;;;;;;;;;;;;;;-12.40;93.94;99921.28;5055731;28;19928;-69
2022/01/07 05:13:00;;;;;;;;;;;;;;;-12.31;93.00;99926.50;5055409;28;20290;-65
2022/01/07 05:15:26;;;;;;;;;;;;;;;-12.20;93.38;99927.63;5055426;28;19921;-69
2022/01/07 05:17:53;;;;;;;;;;;;;;;-12.17;93.49;99924.34;5055429;28;20393;-68
2022/01/07 05:20:19;;;;;;;;;;;;;;;-12.21;92.10;99925.06;5055504;28;19921;-69
2022/01/07 05:22:46;;;;;;;;;;;;;;;-12.17;92.81;99917.66;5055547;28;19928;-69
2022/01/07 05:25:13;;;;;;;;;;;;;;;-12.06;92.08;99912.88;5055331;28;20385;-68
2022/01/07 05:27:40;;;;;;;;;;;;;;;-11.97;93.05;99920.63;5055263;28;19928;-69
2022/01/07 05:30:09;;;;;;;;;;;;;;;-11.91;92.54;99920.75;5055285;28;19935;-68
2022/01/07 05:32:36;;;;;;;;;;;;;;;-11.97;92.63;99922.25;5054953;28;19928;-66
2022/01/07 05:35:03;;;;;;;;;;;;;;;-11.80;93.03;99912.56;5055044;28;20310;-64
2022/01/07 05:37:29;;;;;;;;;;;;;;;-11.81;91.88;99914.25;5054879;28;19921;-64
2022/01/07 05:39:57;;;;;;;;;;;;;;;-11.62;93.32;99916.31;5053799;28;20286;-64
2022/01/07 05:42:23;;;;;;;;;;;;;;;-11.73;91.58;99914.41;5055418;28;19978;-64
2022/01/07 05:44:50;;;;;;;;;;;;;;;-11.62;93.79;99933.88;5054826;28;19920;-68
2022/01/07 05:47:18;;;;;;;;;;;;;;;-11.64;92.34;99933.00;5054842;28;19924;-68
2022/01/07 05:49:45;;;;;;;;;;;;;;;-11.58;93.07;99929.78;5054679;28;20015;-69
2022/01/07 05:52:11;;;;;;;;;;;;;;;-11.54;92.82;99930.69;5055020;28;19921;-69
2022/01/07 05:54:38;;;;;;;;;;;;;;;-11.53;91.77;99934.88;5054713;28;19928;-68
2022/01/07 05:57:05;;;;;;;;;;;;;;;-11.58;92.73;99932.31;5054739;28;19931;-68
2022/01/07 05:59:32;;;;;;;;;;;;;;;-11.54;92.13;99928.19;5054629;28;20355;-68
2022/01/07 06:01:58;;;;;;;;;;;;;;;-11.49;92.82;99932.47;5054570;28;19921;-68
2022/01/07 06:04:26;;;;;;;;;;;;;;;-11.37;93.25;99931.91;5054792;28;19932;-68
2022/01/07 06:06:53;;;;;;;;;;;;;;;-11.38;91.85;99944.41;5054562;28;19928;-69
2022/01/07 06:09:19;;;;;;;;;;;;;;;-11.38;92.72;99946.91;5054550;28;20347;-68
2022/01/07 06:11:46;;;;;;;;;;;;;;;-11.37;92.63;99946.97;5054645;28;19932;-68
2022/01/07 06:14:12;;;;;;;;;;;;;;;-11.36;93.47;99943.63;5054344;28;19921;-68
2022/01/07 06:16:39;;;;;;;;;;;;;;;-11.33;91.34;99952.88;5054318;28;19924;-69
2022/01/07 06:19:06;;;;;;;;;;;;;;;-11.29;91.78;99944.59;5054597;28;19932;-68
2022/01/07 06:21:34;;;;;;;;;;;;;;;-11.32;92.02;99949.56;5054181;28;19921;-68
2022/01/07 06:24:00;;;;;;;;;;;;;;;-11.28;91.90;99946.28;5054197;28;19921;-69
2022/01/07 06:26:27;;;;;;;;;;;;;;;-11.36;91.13;99935.25;5054548;28;20031;-65
2022/01/07 06:28:53;;;;;;;;;;;;;;;-11.25;92.39;99939.69;5054201;28;19921;-68
2022/01/07 06:31:20;;;;;;;;;;;;;;;-11.32;91.38;99937.84;5054187;28;19932;-68
2022/01/07 06:33:46;;;;;;;;;;;;;;;-11.28;92.23;99947.13;5053911;28;19925;-69
2022/01/07 06:36:13;;;;;;;;;;;;;;;-11.32;92.30;99942.03;5053923;28;20295;-68
2022/01/07 06:38:41;;;;;;;;;;;;;;;-11.22;93.21;99952.28;5053905;28;19927;-68
2022/01/07 06:41:08;;;;;;;;;;;;;;;-11.19;93.38;99957.38;5053918;28;19920;-69
2022/01/07 06:43:34;;;;;;;;;;;;;;;-11.21;92.08;99965.69;5053640;28;19921;-68
2022/01/07 06:46:01;;;;;;;;;;;;;;;-11.19;92.01;99977.47;5054115;28;19920;-69
2022/01/07 06:48:27;;;;;;;;;;;;;;;-11.22;92.03;99964.84;5054052;28;19927;-68
2022/01/07 06:50:54;;;;;;;;;;;;;;;-11.11;92.37;99969.25;5053670;28;19925;-69
2022/01/07 06:53:20;;;;;;;;;;;;;;;-11.08;93.15;99975.16;5053589;28;20391;-68
2022/01/07 06:55:48;;;;;;;;;;;;;;;-11.04;91.75;99974.41;5053481;28;19921;-68
2022/01/07 06:58:16;;;;;;;;;;;;;;;-11.12;90.80;99968.41;5053491;28;19921;-68
2022/01/07 07:00:42;;;;;;;;;;;;;;;-11.02;91.33;99974.44;5053745;28;19928;-65
2022/01/07 07:03:09;;;;;;;;;;;;;;;-11.05;92.55;99974.38;5053591;28;20393;-66
2022/01/07 07:05:35;;;;;;;;;;;;;;;-11.02;91.91;99987.88;5053619;28;19927;-66
2022/01/07 07:08:02;;;;;;;;;;;;;;;-10.99;92.15;99982.91;5053467;28;19928;-64
2022/01/07 07:10:29;;;;;;;;;;;;;;;-11.06;92.77;99985.25;5053662;28;19928;-68
2022/01/07 07:12:57;;;;;;;;;;;;;;;-11.07;91.63;99986.94;5053403;28;19928;-69
2022/01/07 07:15:23;;;;;;;;;;;;;;;-11.05;92.95;99986.94;5053254;28;19921;-69
2022/01/07 07:17:50;;;;;;;;;;;;;;;-11.05;91.65;99977.72;5053120;28;19925;-68
2022/01/07 07:20:18;;;;;;;;;;;;;;;-11.01;92.10;99976.97;5053019;28;19928;-65
2022/01/07 07:22:45;;;;;;;;;;;;;;;-11.00;91.42;99985.38;5053173;28;19990;-65
2022/01/07 07:25:11;;;;;;;;;;;;;;;-11.00;91.83;99992.91;5052972;28;20294;-64
2022/01/07 07:27:38;;;;;;;;;;;;;;;-11.01;91.56;100002.09;5053031;28;20015;-65
2022/01/07 07:30:07;;;;;;;;;;;;;;;-10.95;91.76;100011.44;5052986;28;19921;-65
2022/01/07 07:32:35;;;;;;;;;;;;;;;-10.88;92.01;100007.38;5053133;28;19920;-66
2022/01/07 07:35:13;;;;;;;;;;;;;;;-10.84;91.68;100006.59;5052946;28;20417;-68
2022/01/07 07:37:39;;;;;;;;;;;;;;;-10.94;91.77;100012.28;5052676;28;19943;-67
2022/01/07 07:40:07;;;;;;;;;;;;;;;-10.92;93.04;100016.50;5052599;28;19928;-65
2022/01/07 07:42:33;;;;;;;;;;;;;;;-10.88;91.74;100014.94;5052842;28;19928;-69
2022/01/07 07:45:00;;;;;;;;;;;;;;;-10.89;92.28;100020.75;5053009;28;19995;-68
2022/01/07 07:47:28;;;;;;;;;;;;;;;-10.90;91.40;100021.56;5052995;28;19925;-69
2022/01/07 07:49:55;;;;;;;;;;;;;;;-10.76;91.23;100023.56;5052740;28;19925;-64
2022/01/07 07:52:21;;;;;;;;;;;;;;;-10.89;92.27;100026.66;5052593;28;19936;-65
2022/01/07 07:54:48;;;;;;;;;;;;;;;-10.83;90.86;100024.25;5052598;28;20280;-69
2022/01/07 07:57:15;;;;;;;;;;;;;;;-10.92;93.18;100028.22;5052680;28;19928;-69
2022/01/07 07:59:41;;;;;;;;;;;;;;;-10.82;92.94;100033.47;5052907;28;20009;-69
2022/01/07 08:02:09;;;;;;;;;;;;;;;-10.80;92.10;100036.03;5052468;28;19921;-64
2022/01/07 08:04:39;;;;;;;;;;;;;;;-10.73;91.44;100037.00;5051950;28;19927;-67
2022/01/07 08:07:06;;;;;;;;;;;;;;;-10.73;91.12;100031.97;5052678;28;19928;-66
2022/01/07 08:09:37;;;;;;;;;;;;;;;-10.70;90.66;100037.06;5052856;28;19921;-68
2022/01/07 08:12:16;;;;;;;;;;;;;;;-10.77;91.17;100048.66;5052429;28;19963;-68
2022/01/07 08:17:27;;;;;;;;;;;;;;;-10.68;92.31;100051.34;5052527;28;19928;-65
2022/01/07 08:19:55;;;;;;;;;;;;;;;-10.64;90.95;100052.25;5052235;28;19924;-69
2022/01/07 08:22:21;;;;;;;;;;;;;;;-10.58;91.11;100060.75;5052287;28;19921;-65
2022/01/07 08:24:48;;;;;;;;;;;;;;;-10.70;91.82;100060.53;5052387;28;20294;-68
2022/01/07 08:27:15;;;;;;;;;;;;;;;-10.60;90.61;100069.09;5052122;28;19936;-66
2022/01/07 08:29:42;;;;;;;;;;;;;;;-10.60;90.85;100072.44;5052020;28;20283;-69
2022/01/07 08:34:56;;;;;;;;;;;;;;;-10.63;91.53;100074.91;5052357;28;20101;-64
2022/01/07 08:37:25;;;;;;;;;;;;;;;-10.62;91.42;100078.28;5052053;28;20363;-67
2022/01/07 08:39:53;;;;;;;;;;;;;;;-10.59;90.77;100083.34;5052145;28;19928;-65
2022/01/07 08:42:21;;;;;;;;;;;;;;;-10.58;91.40;100082.56;5052111;28;20031;-68
2022/01/07 08:44:47;;;;;;;;;;;;;;;-10.58;91.57;100085.91;5052372;28;19928;-68
2022/01/07 08:47:14;;;;;;;;;;;;;;;-10.55;91.54;100083.44;5063479;22;19920;-77
2022/01/07 08:49:41;;;;;;;;;;;;;;;-10.59;90.76;100086.72;5051990;28;20291;-77
2022/01/07 08:52:07;;;;;;;;;;;;;;;-10.55;91.33;100080.09;5052422;28;19920;-77
2022/01/07 08:54:35;;;;;;;;;;;;;;;-10.45;91.18;100083.59;5052489;28;19921;-77
2022/01/07 08:57:02;;;;;;;;;;;;;;;-10.46;90.56;100087.78;5051784;28;19921;-77
2022/01/07 08:59:29;;;;;;;;;;;;;;;-10.55;91.00;100087.63;5052120;28;20390;-76
2022/01/07 09:01:55;;;;;;;;;;;;;;;-10.46;90.58;100092.81;5052124;28;20363;-74
2022/01/07 09:04:22;;;;;;;;;;;;;;;-10.45;90.91;100094.53;5052006;28;20788;-76
2022/01/07 09:06:49;;;;;;;;;;;;;;;-10.39;90.63;100092.13;5052145;28;19925;-77
2022/01/07 09:09:32;;;;;;;;;;;;;;;-10.39;90.49;100089.63;5076264;22;19921;-77
2022/01/07 09:12:00;;;;;;;;;;;;;;;-10.33;89.55;100097.25;5051217;28;19920;-77
2022/01/07 09:14:27;;;;;;;;;;;;;;;-10.37;90.96;100098.03;5053120;28;19925;-78
2022/01/07 09:16:53;;;;;;;;;;;;;;;-10.38;90.57;100101.34;5062942;22;20306;-78
2022/01/07 09:19:20;;;;;;;;;;;;;;;-10.34;91.13;100098.09;5055677;28;19935;-77
2022/01/07 09:21:47;;;;;;;;;;;;;;;-10.37;91.00;100102.22;5055462;28;20358;-78
2022/01/07 09:24:13;;;;;;;;;;;;;;;-10.27;90.86;100100.72;5055890;28;19921;-78
2022/01/07 09:26:40;;;;;;;;;;;;;;;-10.31;90.29;100102.34;5062934;22;20356;-76
2022/01/07 09:29:08;;;;;;;;;;;;;;;-10.31;89.97;100105.69;5055579;28;19928;-77
2022/01/07 09:31:35;;;;;;;;;;;;;;;-10.34;89.48;100104.81;5055575;28;19920;-77
2022/01/07 09:34:01;;;;;;;;;;;;;;;-10.28;90.90;100104.91;5088097;22;19924;-77
2022/01/07 09:36:28;;;;;;;;;;;;;;;-10.27;92.00;100099.03;5055378;28;20062;-77
2022/01/07 09:38:55;;;;;;;;;;;;;;;-10.27;90.65;100104.06;5055263;28;19921;-77
2022/01/07 09:41:22;;;;;;;;;;;;;;;-10.21;90.53;100098.31;5055275;28;19982;-77
2022/01/07 09:43:48;;;;;;;;;;;;;;;-10.18;90.64;100104.22;5054946;28;19927;-77
2022/01/07 09:46:18;;;;;;;;;;;;;;;-10.21;90.22;100108.38;5067741;22;19921;-69
2022/01/07 09:48:45;;;;;;;;;;;;;;;-10.24;90.00;100104.13;5054615;28;19925;-69
2022/01/07 09:51:13;;;;;;;;;;;;;;;-10.18;90.42;100104.22;5054921;28;19920;-68
2022/01/07 09:53:40;;;;;;;;;;;;;;;-10.18;89.86;100114.28;5054981;28;19928;-67
2022/01/07 09:56:06;;;;;;;;;;;;;;;-10.25;90.25;100112.47;5054895;28;19928;-66
2022/01/07 09:58:34;;;;;;;;;;;;;;;-10.20;90.51;100110.88;5055034;28;19929;-68
2022/01/07 10:01:05;;;;;;;;;;;;;;;-10.22;90.51;100110.03;5054751;28;19925;-67
2022/01/07 10:03:40;;;;;;;;;;;;;;;-10.26;90.87;100107.44;5054901;28;19921;-69
2022/01/07 10:06:16;;;;;;;;;;;;;;;-10.08;91.28;100112.78;5054529;28;20370;-66
2022/01/07 10:08:42;;;;;;;;;;;;;;;-10.13;90.19;100115.22;5054339;28;20298;-69
2022/01/07 10:11:11;;;;;;;;;;;;;;;-10.18;90.46;100121.00;5054716;28;19921;-69
2022/01/07 10:13:38;;;;;;;;;;;;;;;-10.18;90.29;100119.31;5054541;28;19927;-67
2022/01/07 10:16:13;;;;;;;;;;;;;;;-10.08;90.11;100122.88;5054401;28;19931;-68
2022/01/07 10:18:41;;;;;;;;;;;;;;;-10.13;90.11;100129.47;5054745;28;19920;-69
2022/01/07 10:21:08;;;;;;;;;;;;;;;-10.06;90.05;100136.31;5054324;28;19920;-69
2022/01/07 10:23:35;;;;;;;;;;;;;;;-10.15;90.23;100136.97;5054256;28;19932;-69
2022/01/07 10:26:01;;;;;;;;;;;;;;;-10.14;90.49;100143.72;5053415;28;20354;-68
2022/01/07 10:28:30;;;;;;;;;;;;;;;-10.07;90.07;100149.72;5054051;28;19927;-67
2022/01/07 10:30:59;;;;;;;;;;;;;;;-10.03;89.83;100153.16;5054071;28;20395;-69
2022/01/07 10:33:27;;;;;;;;;;;;;;;-10.05;89.57;100155.63;5053966;28;20393;-68
2022/01/07 10:35:55;;;;;;;;;;;;;;;-10.12;89.84;100154.69;5054212;28;19920;-69
2022/01/07 10:38:23;;;;;;;;;;;;;;;-10.14;90.14;100160.50;5054134;28;19943;-70
2022/01/07 10:40:50;;;;;;;;;;;;;;;-10.05;90.70;100168.22;5053803;28;19927;-70
2022/01/07 10:43:18;;;;;;;;;;;;;;;-10.11;89.90;100163.91;5053916;28;19924;-69
2022/01/07 10:45:45;;;;;;;;;;;;;;;-10.00;90.17;100173.34;5054435;28;19974;-69
2022/01/07 10:48:14;;;;;;;;;;;;;;;-10.11;90.92;100173.13;5053864;28;19920;-70
2022/01/07 10:50:42;;;;;;;;;;;;;;;-10.11;90.01;100189.06;5053739;28;19921;-68
2022/01/07 10:53:16;;;;;;;;;;;;;;;-10.11;90.08;100184.03;5053732;28;20367;-66
2022/01/07 10:55:57;;;;;;;;;;;;;;;-10.02;90.26;100187.56;5053785;28;19951;-69
2022/01/07 10:58:23;;;;;;;;;;;;;;;-10.07;90.91;100192.50;5053428;28;19920;-70
2022/01/07 11:00:50;;;;;;;;;;;;;;;-10.01;90.75;100187.59;5053423;28;19921;-70
2022/01/07 11:03:17;;;;;;;;;;;;;;;-10.05;90.67;100195.88;5053569;28;20363;-67
2022/01/07 11:05:43;;;;;;;;;;;;;;;-10.06;90.55;100195.88;5053629;28;19920;-70
2022/01/07 11:08:10;;;;;;;;;;;;;;;-9.97;89.81;100201.91;5053446;28;19928;-70
2022/01/07 11:10:38;;;;;;;;;;;;;;;-9.95;89.96;100207.84;5053619;28;19920;-70
2022/01/07 11:13:05;;;;;;;;;;;;;;;-9.97;90.62;100209.47;5053236;28;19928;-69
2022/01/07 11:15:32;;;;;;;;;;;;;;;-10.15;90.81;100207.44;5053052;28;20413;-68
2022/01/07 11:17:58;;;;;;;;;;;;;;;-10.06;90.67;100216.00;5053209;28;19920;-69
2022/01/07 11:20:25;;;;;;;;;;;;;;;-9.93;90.49;100225.50;5052979;28;19921;-68
2022/01/07 11:22:52;;;;;;;;;;;;;;;-9.94;90.68;100223.78;5052825;28;19921;-70
2022/01/07 11:25:19;;;;;;;;;;;;;;;-9.94;90.83;100228.81;5053088;28;19921;-69
2022/01/07 11:27:48;;;;;;;;;;;;;;;-9.96;90.41;100230.47;5052853;28;19921;-68
2022/01/07 11:30:16;;;;;;;;;;;;;;;-9.87;90.28;100228.13;5053028;28;19927;-70
2022/01/07 11:32:44;;;;;;;;;;;;;;;-9.93;89.92;100228.84;5053063;28;19921;-70
2022/01/07 11:35:45;;;;;;;;;;;;;;;-9.88;90.56;100226.44;5052849;28;20126;-70
2022/01/07 11:38:39;;;;;;;;;;;;;;;-9.87;90.37;100239.03;5052037;28;20298;-70
2022/01/07 11:41:09;;;;;;;;;;;;;;;-9.88;90.62;100232.31;5052598;28;19921;-70
2022/01/07 11:43:39;;;;;;;;;;;;;;;-9.89;90.39;100232.28;5052576;28;19921;-67
2022/01/07 11:46:24;;;;;;;;;;;;;;;-9.95;90.89;100238.03;5052960;28;20386;-70
2022/01/07 11:48:51;;;;;;;;;;;;;;;-9.91;90.26;100227.22;5052687;28;19928;-70
2022/01/07 11:51:18;;;;;;;;;;;;;;;-9.97;90.82;100231.28;5052693;28;19920;-70
2022/01/07 11:53:59;;;;;;;;;;;;;;;-10.02;91.31;100235.38;5052796;28;19921;-68
2022/01/07 11:56:26;;;;;;;;;;;;;;;-10.07;91.55;100235.28;5050681;28;19921;-69
2022/01/07 11:58:55;;;;;;;;;;;;;;;-9.99;91.21;100242.97;5052660;28;19921;-69
2022/01/07 12:01:26;;;;;;;;;;;;;;;-9.97;90.77;100237.16;5052463;28;19920;-69
2022/01/07 12:03:54;;;;;;;;;;;;;;;-9.98;90.85;100245.53;5052497;28;19921;-69
2022/01/07 12:06:39;;;;;;;;;;;;;;;-9.94;90.29;100259.03;5052185;28;19921;-68
2022/01/07 12:09:10;;;;;;;;;;;;;;;-9.96;90.67;100248.94;5052164;28;20432;-68
2022/01/07 12:11:38;;;;;;;;;;;;;;;-9.94;90.29;100257.38;5052460;28;19921;-68
2022/01/07 12:14:10;;;;;;;;;;;;;;;-10.09;89.88;100254.53;5052349;28;19929;-69
2022/01/07 12:16:37;;;;;;;;;;;;;;;-9.96;91.42;100259.00;5052274;28;19951;-69
2022/01/07 12:19:27;;;;;;;;;;;;;;;-9.98;90.36;100268.19;5052361;28;19921;-69
2022/01/07 12:21:54;;;;;;;;;;;;;;;-10.00;91.62;100268.97;5052114;28;19931;-68
2022/01/07 12:24:22;;;;;;;;;;;;;;;-10.07;91.29;100270.50;5052422;28;19920;-69
2022/01/07 12:27:01;;;;;;;;;;;;;;;-10.16;90.71;100267.81;5052459;28;19920;-70
2022/01/07 12:29:31;;;;;;;;;;;;;;;-10.14;91.76;100278.75;5052222;28;19931;-69
2022/01/07 12:31:57;;;;;;;;;;;;;;;-10.05;91.57;100271.38;5052421;28;19920;-69
2022/01/07 12:34:25;;;;;;;;;;;;;;;-10.03;90.84;100268.91;5052108;28;20291;-69
2022/01/07 12:36:55;;;;;;;;;;;;;;;-10.11;91.41;100276.31;5052209;28;19921;-70
2022/01/07 12:39:26;;;;;;;;;;;;;;;-10.06;91.48;100284.81;5052197;28;19928;-69
2022/01/07 12:41:53;;;;;;;;;;;;;;;-10.14;91.40;100288.84;5052188;28;19974;-70
2022/01/07 12:44:19;;;;;;;;;;;;;;;-10.01;91.12;100275.69;5052491;28;19974;-66
2022/01/07 12:46:51;;;;;;;;;;;;;;;-10.08;91.64;100287.28;5052522;28;19928;-69
2022/01/07 12:49:19;;;;;;;;;;;;;;;-10.02;91.16;100281.50;5053128;28;19925;-69
2022/01/07 12:51:53;;;;;;;;;;;;;;;-10.06;91.72;100284.81;5056060;28;19996;-70